sensor_id;sensor_type;location;lat;lon;timestamp;P1;durP1;ratioP1;P2;durP2;ratioP2
50709;SDS011;37033;49.994;21.992;2023-09-19T00:01:23;6.60;;;6.00;;
50709;SDS011;37033;49.994;21.992;2023-09-19T00:03:54;7.40;;;5.80;;
50709;SDS011;37033;49.994;21.992;2023-09-19T00:06:25;8.30;;;6.00;;
50709;SDS011;37033;49.994;21.992;2023-09-19T00:08:59;6.50;;;5.60;;
50709;SDS011;37033;49.994;21.992;2023-09-19T00:11:30;9.60;;;6.50;;
50709;SDS011;37033;49.994;21.992;2023-09-19T00:14:02;8.50;;;5.70;;
50709;SDS011;37033;49.994;21.992;2023-09-19T00:16:36;6.50;;;5.90;;
50709;SDS011;37033;49.994;21.992;2023-09-19T00:19:06;6.60;;;6.00;;
50709;SDS011;37033;49.994;21.992;2023-09-19T00:21:37;6.40;;;5.60;;
50709;SDS011;37033;49.994;21.992;2023-09-19T00:24:08;6.50;;;5.70;;
50709;SDS011;37033;49.994;21.992;2023-09-19T00:26:40;5.40;;;4.90;;
50709;SDS011;37033;49.994;21.992;2023-09-19T00:29:11;6.30;;;5.20;;
50709;SDS011;37033;49.994;21.992;2023-09-19T00:31:44;7.70;;;6.70;;
50709;SDS011;37033;49.994;21.992;2023-09-19T00:34:15;7.90;;;6.10;;
50709;SDS011;37033;49.994;21.992;2023-09-19T00:36:45;6.20;;;5.60;;
50709;SDS011;37033;49.994;21.992;2023-09-19T00:39:16;6.90;;;5.30;;
50709;SDS011;37033;49.994;21.992;2023-09-19T00:41:48;6.20;;;5.30;;
50709;SDS011;37033;49.994;21.992;2023-09-19T00:44:18;8.80;;;6.10;;
50709;SDS011;37033;49.994;21.992;2023-09-19T00:46:52;6.50;;;5.40;;
50709;SDS011;37033;49.994;21.992;2023-09-19T00:49:23;7.90;;;5.70;;
50709;SDS011;37033;49.994;21.992;2023-09-19T00:51:54;6.60;;;6.00;;
50709;SDS011;37033;49.994;21.992;2023-09-19T00:54:25;6.60;;;5.90;;
50709;SDS011;37033;49.994;21.992;2023-09-19T00:56:56;6.70;;;5.60;;
50709;SDS011;37033;49.994;21.992;2023-09-19T00:59:26;7.10;;;5.80;;
50709;SDS011;37033;49.994;21.992;2023-09-19T01:01:57;6.60;;;6.00;;
50709;SDS011;37033;49.994;21.992;2023-09-19T01:04:28;6.60;;;5.50;;
50709;SDS011;37033;49.994;21.992;2023-09-19T01:06:59;6.20;;;5.60;;
50709;SDS011;37033;49.994;21.992;2023-09-19T01:09:30;6.00;;;5.40;;
50709;SDS011;37033;49.994;21.992;2023-09-19T01:12:02;6.30;;;4.90;;
50709;SDS011;37033;49.994;21.992;2023-09-19T01:14:40;8.30;;;5.80;;
50709;SDS011;37033;49.994;21.992;2023-09-19T01:17:17;7.40;;;5.90;;
50709;SDS011;37033;49.994;21.992;2023-09-19T01:20:00;5.90;;;5.30;;
50709;SDS011;37033;49.994;21.992;2023-09-19T01:22:45;7.20;;;5.80;;
50709;SDS011;37033;49.994;21.992;2023-09-19T01:25:33;7.90;;;5.90;;
50709;SDS011;37033;49.994;21.992;2023-09-19T01:28:29;6.20;;;5.60;;
50709;SDS011;37033;49.994;21.992;2023-09-19T01:31:04;6.80;;;6.10;;
50709;SDS011;37033;49.994;21.992;2023-09-19T01:36:31;9.10;;;6.10;;
50709;SDS011;37033;49.994;21.992;2023-09-19T01:39:04;9.30;;;5.80;;
50709;SDS011;37033;49.994;21.992;2023-09-19T01:41:45;6.40;;;5.80;;
50709;SDS011;37033;49.994;21.992;2023-09-19T01:44:24;7.40;;;5.70;;
50709;SDS011;37033;49.994;21.992;2023-09-19T01:46:59;6.90;;;5.80;;
50709;SDS011;37033;49.994;21.992;2023-09-19T01:49:50;7.60;;;5.80;;
50709;SDS011;37033;49.994;21.992;2023-09-19T01:52:31;8.60;;;6.60;;
50709;SDS011;37033;49.994;21.992;2023-09-19T01:55:10;6.50;;;5.70;;
50709;SDS011;37033;49.994;21.992;2023-09-19T01:57:48;7.00;;;5.50;;
50709;SDS011;37033;49.994;21.992;2023-09-19T02:00:27;7.50;;;5.50;;
50709;SDS011;37033;49.994;21.992;2023-09-19T02:03:01;7.30;;;6.00;;
50709;SDS011;37033;49.994;21.992;2023-09-19T02:05:32;8.30;;;5.70;;
50709;SDS011;37033;49.994;21.992;2023-09-19T02:08:03;6.90;;;5.80;;
50709;SDS011;37033;49.994;21.992;2023-09-19T02:10:34;6.30;;;5.70;;
50709;SDS011;37033;49.994;21.992;2023-09-19T02:13:05;6.80;;;5.90;;
50709;SDS011;37033;49.994;21.992;2023-09-19T02:15:36;7.20;;;6.50;;
50709;SDS011;37033;49.994;21.992;2023-09-19T02:18:06;7.20;;;6.00;;
50709;SDS011;37033;49.994;21.992;2023-09-19T02:20:37;7.20;;;5.60;;
50709;SDS011;37033;49.994;21.992;2023-09-19T02:23:08;7.10;;;5.90;;
50709;SDS011;37033;49.994;21.992;2023-09-19T02:25:39;9.30;;;6.40;;
50709;SDS011;37033;49.994;21.992;2023-09-19T02:28:10;6.80;;;5.60;;
50709;SDS011;37033;49.994;21.992;2023-09-19T02:30:41;6.40;;;5.90;;
50709;SDS011;37033;49.994;21.992;2023-09-19T02:33:12;6.50;;;5.90;;
50709;SDS011;37033;49.994;21.992;2023-09-19T02:35:42;8.90;;;6.20;;
50709;SDS011;37033;49.994;21.992;2023-09-19T02:38:13;6.90;;;5.90;;
50709;SDS011;37033;49.994;21.992;2023-09-19T02:40:52;7.60;;;5.90;;
50709;SDS011;37033;49.994;21.992;2023-09-19T02:43:23;6.30;;;5.70;;
50709;SDS011;37033;49.994;21.992;2023-09-19T02:45:54;7.50;;;6.60;;
50709;SDS011;37033;49.994;21.992;2023-09-19T02:48:25;8.20;;;6.30;;
50709;SDS011;37033;49.994;21.992;2023-09-19T02:50:57;6.80;;;6.10;;
50709;SDS011;37033;49.994;21.992;2023-09-19T02:53:28;7.10;;;5.70;;
50709;SDS011;37033;49.994;21.992;2023-09-19T02:55:59;6.70;;;6.10;;
50709;SDS011;37033;49.994;21.992;2023-09-19T02:58:32;9.60;;;6.20;;
50709;SDS011;37033;49.994;21.992;2023-09-19T03:01:09;6.70;;;6.10;;
50709;SDS011;37033;49.994;21.992;2023-09-19T03:03:40;8.40;;;5.90;;
50709;SDS011;37033;49.994;21.992;2023-09-19T03:06:11;7.80;;;5.90;;
50709;SDS011;37033;49.994;21.992;2023-09-19T03:08:42;6.70;;;6.00;;
50709;SDS011;37033;49.994;21.992;2023-09-19T03:11:14;6.10;;;5.50;;
50709;SDS011;37033;49.994;21.992;2023-09-19T03:16:20;6.00;;;5.10;;
50709;SDS011;37033;49.994;21.992;2023-09-19T03:18:52;7.60;;;5.60;;
50709;SDS011;37033;49.994;21.992;2023-09-19T03:21:23;9.40;;;6.00;;
50709;SDS011;37033;49.994;21.992;2023-09-19T03:23:54;6.40;;;5.40;;
50709;SDS011;37033;49.994;21.992;2023-09-19T03:26:24;7.40;;;5.70;;
50709;SDS011;37033;49.994;21.992;2023-09-19T03:28:55;6.90;;;5.40;;
50709;SDS011;37033;49.994;21.992;2023-09-19T03:31:26;6.90;;;6.10;;
50709;SDS011;37033;49.994;21.992;2023-09-19T03:33:58;8.40;;;5.80;;
50709;SDS011;37033;49.994;21.992;2023-09-19T03:36:29;7.00;;;6.30;;
50709;SDS011;37033;49.994;21.992;2023-09-19T03:39:03;7.00;;;6.30;;
50709;SDS011;37033;49.994;21.992;2023-09-19T03:41:35;7.70;;;6.40;;
50709;SDS011;37033;49.994;21.992;2023-09-19T03:44:06;6.60;;;5.90;;
50709;SDS011;37033;49.994;21.992;2023-09-19T03:46:37;7.40;;;6.50;;
50709;SDS011;37033;49.994;21.992;2023-09-19T03:49:08;11.70;;;6.80;;
50709;SDS011;37033;49.994;21.992;2023-09-19T03:51:38;6.90;;;6.20;;
50709;SDS011;37033;49.994;21.992;2023-09-19T03:54:10;6.80;;;6.10;;
50709;SDS011;37033;49.994;21.992;2023-09-19T03:56:41;7.10;;;6.40;;
50709;SDS011;37033;49.994;21.992;2023-09-19T03:59:12;7.60;;;6.30;;
50709;SDS011;37033;49.994;21.992;2023-09-19T04:01:42;10.40;;;6.80;;
50709;SDS011;37033;49.994;21.992;2023-09-19T04:04:14;10.30;;;7.20;;
50709;SDS011;37033;49.994;21.992;2023-09-19T04:06:46;10.90;;;6.70;;
50709;SDS011;37033;49.994;21.992;2023-09-19T04:09:17;7.50;;;6.80;;
50709;SDS011;37033;49.994;21.992;2023-09-19T04:11:47;8.00;;;7.20;;
50709;SDS011;37033;49.994;21.992;2023-09-19T04:14:19;9.00;;;6.90;;
50709;SDS011;37033;49.994;21.992;2023-09-19T04:16:49;7.60;;;6.90;;
50709;SDS011;37033;49.994;21.992;2023-09-19T04:19:21;7.10;;;6.10;;
50709;SDS011;37033;49.994;21.992;2023-09-19T04:21:51;9.90;;;6.80;;
50709;SDS011;37033;49.994;21.992;2023-09-19T04:24:23;7.90;;;7.20;;
50709;SDS011;37033;49.994;21.992;2023-09-19T04:26:53;10.40;;;6.60;;
50709;SDS011;37033;49.994;21.992;2023-09-19T04:29:24;7.30;;;6.60;;
50709;SDS011;37033;49.994;21.992;2023-09-19T04:31:57;9.70;;;7.70;;
50709;SDS011;37033;49.994;21.992;2023-09-19T04:34:28;8.10;;;7.30;;
50709;SDS011;37033;49.994;21.992;2023-09-19T04:36:58;9.10;;;6.70;;
50709;SDS011;37033;49.994;21.992;2023-09-19T04:39:29;7.80;;;7.10;;
50709;SDS011;37033;49.994;21.992;2023-09-19T04:42:01;7.90;;;7.10;;
50709;SDS011;37033;49.994;21.992;2023-09-19T04:44:33;7.50;;;6.90;;
50709;SDS011;37033;49.994;21.992;2023-09-19T04:47:05;7.50;;;6.80;;
50709;SDS011;37033;49.994;21.992;2023-09-19T04:49:36;13.20;;;7.80;;
50709;SDS011;37033;49.994;21.992;2023-09-19T04:52:07;7.90;;;7.20;;
50709;SDS011;37033;49.994;21.992;2023-09-19T04:54:38;9.00;;;6.10;;
50709;SDS011;37033;49.994;21.992;2023-09-19T04:57:09;7.50;;;6.70;;
50709;SDS011;37033;49.994;21.992;2023-09-19T04:59:40;7.10;;;6.40;;
50709;SDS011;37033;49.994;21.992;2023-09-19T05:02:11;7.50;;;6.80;;
50709;SDS011;37033;49.994;21.992;2023-09-19T05:04:41;7.40;;;6.50;;
50709;SDS011;37033;49.994;21.992;2023-09-19T05:07:12;7.30;;;6.60;;
50709;SDS011;37033;49.994;21.992;2023-09-19T05:09:42;7.40;;;6.70;;
50709;SDS011;37033;49.994;21.992;2023-09-19T05:12:13;8.90;;;6.60;;
50709;SDS011;37033;49.994;21.992;2023-09-19T05:14:47;7.80;;;7.00;;
50709;SDS011;37033;49.994;21.992;2023-09-19T05:17:18;9.00;;;6.90;;
50709;SDS011;37033;49.994;21.992;2023-09-19T05:19:49;7.00;;;6.40;;
50709;SDS011;37033;49.994;21.992;2023-09-19T05:22:19;7.10;;;6.50;;
50709;SDS011;37033;49.994;21.992;2023-09-19T05:24:52;6.80;;;6.20;;
50709;SDS011;37033;49.994;21.992;2023-09-19T05:27:22;6.90;;;6.30;;
50709;SDS011;37033;49.994;21.992;2023-09-19T05:29:53;8.40;;;6.80;;
50709;SDS011;37033;49.994;21.992;2023-09-19T05:32:24;10.10;;;7.40;;
50709;SDS011;37033;49.994;21.992;2023-09-19T05:34:55;11.30;;;5.80;;
50709;SDS011;37033;49.994;21.992;2023-09-19T05:37:26;6.20;;;5.60;;
50709;SDS011;37033;49.994;21.992;2023-09-19T05:39:57;5.60;;;5.10;;
50709;SDS011;37033;49.994;21.992;2023-09-19T05:42:28;6.00;;;5.50;;
50709;SDS011;37033;49.994;21.992;2023-09-19T05:44:58;6.00;;;5.40;;
50709;SDS011;37033;49.994;21.992;2023-09-19T05:47:29;7.30;;;5.70;;
50709;SDS011;37033;49.994;21.992;2023-09-19T05:49:59;6.20;;;4.90;;
50709;SDS011;37033;49.994;21.992;2023-09-19T05:52:30;6.50;;;5.90;;
50709;SDS011;37033;49.994;21.992;2023-09-19T05:55:01;6.70;;;5.40;;
50709;SDS011;37033;49.994;21.992;2023-09-19T05:57:32;6.30;;;5.70;;
50709;SDS011;37033;49.994;21.992;2023-09-19T06:00:04;6.10;;;5.40;;
50709;SDS011;37033;49.994;21.992;2023-09-19T06:02:37;5.90;;;4.90;;
50709;SDS011;37033;49.994;21.992;2023-09-19T06:05:09;7.70;;;6.90;;
50709;SDS011;37033;49.994;21.992;2023-09-19T06:07:39;7.10;;;6.30;;
50709;SDS011;37033;49.994;21.992;2023-09-19T06:10:10;7.30;;;6.70;;
50709;SDS011;37033;49.994;21.992;2023-09-19T06:12:42;7.90;;;6.00;;
50709;SDS011;37033;49.994;21.992;2023-09-19T06:15:13;9.60;;;7.20;;
50709;SDS011;37033;49.994;21.992;2023-09-19T06:17:47;7.40;;;5.90;;
50709;SDS011;37033;49.994;21.992;2023-09-19T06:20:18;7.50;;;6.20;;
50709;SDS011;37033;49.994;21.992;2023-09-19T06:22:51;6.60;;;6.00;;
50709;SDS011;37033;49.994;21.992;2023-09-19T06:25:22;6.40;;;5.70;;
50709;SDS011;37033;49.994;21.992;2023-09-19T06:27:53;5.90;;;5.30;;
50709;SDS011;37033;49.994;21.992;2023-09-19T06:30:24;7.10;;;6.50;;
50709;SDS011;37033;49.994;21.992;2023-09-19T06:32:57;7.30;;;6.60;;
50709;SDS011;37033;49.994;21.992;2023-09-19T06:35:28;7.10;;;6.50;;
50709;SDS011;37033;49.994;21.992;2023-09-19T06:38:01;7.70;;;6.80;;
50709;SDS011;37033;49.994;21.992;2023-09-19T06:40:33;8.30;;;7.50;;
50709;SDS011;37033;49.994;21.992;2023-09-19T06:43:04;7.60;;;6.30;;
50709;SDS011;37033;49.994;21.992;2023-09-19T06:45:35;7.70;;;6.80;;
50709;SDS011;37033;49.994;21.992;2023-09-19T06:48:06;9.20;;;5.90;;
50709;SDS011;37033;49.994;21.992;2023-09-19T06:50:37;6.90;;;6.00;;
50709;SDS011;37033;49.994;21.992;2023-09-19T06:53:09;7.80;;;6.20;;
50709;SDS011;37033;49.994;21.992;2023-09-19T06:55:40;5.90;;;5.30;;
50709;SDS011;37033;49.994;21.992;2023-09-19T06:58:11;6.00;;;5.50;;
50709;SDS011;37033;49.994;21.992;2023-09-19T07:00:44;5.60;;;5.10;;
50709;SDS011;37033;49.994;21.992;2023-09-19T07:03:15;5.20;;;4.70;;
50709;SDS011;37033;49.994;21.992;2023-09-19T07:05:49;5.30;;;4.80;;
50709;SDS011;37033;49.994;21.992;2023-09-19T07:08:20;5.40;;;4.60;;
50709;SDS011;37033;49.994;21.992;2023-09-19T07:10:51;4.90;;;4.40;;
50709;SDS011;37033;49.994;21.992;2023-09-19T07:13:22;5.30;;;4.20;;
50709;SDS011;37033;49.994;21.992;2023-09-19T07:15:52;4.90;;;4.50;;
50709;SDS011;37033;49.994;21.992;2023-09-19T07:18:23;4.10;;;3.80;;
50709;SDS011;37033;49.994;21.992;2023-09-19T07:20:57;6.10;;;3.90;;
50709;SDS011;37033;49.994;21.992;2023-09-19T07:23:32;4.60;;;3.20;;
50709;SDS011;37033;49.994;21.992;2023-09-19T07:26:03;4.40;;;3.90;;
50709;SDS011;37033;49.994;21.992;2023-09-19T07:28:34;4.70;;;3.50;;
50709;SDS011;37033;49.994;21.992;2023-09-19T07:31:04;4.10;;;3.70;;
50709;SDS011;37033;49.994;21.992;2023-09-19T07:33:37;6.40;;;3.70;;
50709;SDS011;37033;49.994;21.992;2023-09-19T07:36:10;4.10;;;3.80;;
50709;SDS011;37033;49.994;21.992;2023-09-19T07:38:41;5.60;;;4.50;;
50709;SDS011;37033;49.994;21.992;2023-09-19T07:41:12;5.40;;;4.70;;
50709;SDS011;37033;49.994;21.992;2023-09-19T07:43:43;5.00;;;4.60;;
50709;SDS011;37033;49.994;21.992;2023-09-19T07:46:13;7.20;;;5.70;;
50709;SDS011;37033;49.994;21.992;2023-09-19T07:48:44;5.40;;;4.90;;
50709;SDS011;37033;49.994;21.992;2023-09-19T07:51:16;6.00;;;5.50;;
50709;SDS011;37033;49.994;21.992;2023-09-19T07:53:47;8.50;;;5.60;;
50709;SDS011;37033;49.994;21.992;2023-09-19T07:56:17;5.60;;;5.10;;
50709;SDS011;37033;49.994;21.992;2023-09-19T07:58:48;6.10;;;5.50;;
50709;SDS011;37033;49.994;21.992;2023-09-19T08:01:19;6.90;;;5.10;;
50709;SDS011;37033;49.994;21.992;2023-09-19T08:03:51;6.30;;;5.60;;
50709;SDS011;37033;49.994;21.992;2023-09-19T08:06:22;6.80;;;6.10;;
50709;SDS011;37033;49.994;21.992;2023-09-19T08:08:54;6.10;;;5.60;;
50709;SDS011;37033;49.994;21.992;2023-09-19T08:11:28;12.00;;;6.90;;
50709;SDS011;37033;49.994;21.992;2023-09-19T08:13:59;7.00;;;6.40;;
50709;SDS011;37033;49.994;21.992;2023-09-19T08:16:29;5.90;;;5.40;;
50709;SDS011;37033;49.994;21.992;2023-09-19T08:19:00;10.30;;;6.60;;
50709;SDS011;37033;49.994;21.992;2023-09-19T08:21:31;6.30;;;5.70;;
50709;SDS011;37033;49.994;21.992;2023-09-19T08:24:02;8.10;;;6.60;;
50709;SDS011;37033;49.994;21.992;2023-09-19T08:26:33;6.90;;;6.20;;
50709;SDS011;37033;49.994;21.992;2023-09-19T08:29:05;10.20;;;6.60;;
50709;SDS011;37033;49.994;21.992;2023-09-19T08:31:38;7.20;;;6.60;;
50709;SDS011;37033;49.994;21.992;2023-09-19T08:34:08;7.20;;;6.30;;
50709;SDS011;37033;49.994;21.992;2023-09-19T08:36:39;7.30;;;6.60;;
50709;SDS011;37033;49.994;21.992;2023-09-19T08:39:11;7.80;;;6.30;;
50709;SDS011;37033;49.994;21.992;2023-09-19T08:41:42;7.60;;;6.40;;
50709;SDS011;37033;49.994;21.992;2023-09-19T08:44:12;6.80;;;6.00;;
50709;SDS011;37033;49.994;21.992;2023-09-19T08:46:43;8.80;;;6.40;;
50709;SDS011;37033;49.994;21.992;2023-09-19T08:49:19;6.70;;;6.00;;
50709;SDS011;37033;49.994;21.992;2023-09-19T08:52:00;7.10;;;6.40;;
50709;SDS011;37033;49.994;21.992;2023-09-19T08:54:37;6.80;;;6.10;;
50709;SDS011;37033;49.994;21.992;2023-09-19T08:57:09;6.50;;;5.90;;
50709;SDS011;37033;49.994;21.992;2023-09-19T08:59:45;6.60;;;6.00;;
50709;SDS011;37033;49.994;21.992;2023-09-19T09:02:18;7.40;;;6.80;;
50709;SDS011;37033;49.994;21.992;2023-09-19T09:04:49;6.00;;;5.50;;
50709;SDS011;37033;49.994;21.992;2023-09-19T09:07:21;9.40;;;6.80;;
50709;SDS011;37033;49.994;21.992;2023-09-19T09:09:52;7.00;;;6.30;;
50709;SDS011;37033;49.994;21.992;2023-09-19T09:12:23;7.50;;;6.40;;
50709;SDS011;37033;49.994;21.992;2023-09-19T09:14:54;6.80;;;6.20;;
50709;SDS011;37033;49.994;21.992;2023-09-19T09:17:25;7.60;;;6.80;;
50709;SDS011;37033;49.994;21.992;2023-09-19T09:19:55;7.90;;;6.30;;
50709;SDS011;37033;49.994;21.992;2023-09-19T09:22:26;7.30;;;6.60;;
50709;SDS011;37033;49.994;21.992;2023-09-19T09:24:57;7.10;;;6.50;;
50709;SDS011;37033;49.994;21.992;2023-09-19T09:27:31;6.90;;;6.20;;
50709;SDS011;37033;49.994;21.992;2023-09-19T09:30:02;7.10;;;6.00;;
50709;SDS011;37033;49.994;21.992;2023-09-19T09:32:34;6.30;;;5.80;;
50709;SDS011;37033;49.994;21.992;2023-09-19T09:35:08;7.10;;;6.40;;
50709;SDS011;37033;49.994;21.992;2023-09-19T09:37:42;6.70;;;5.90;;
50709;SDS011;37033;49.994;21.992;2023-09-19T09:40:15;6.20;;;5.70;;
50709;SDS011;37033;49.994;21.992;2023-09-19T09:43:03;6.20;;;5.60;;
50709;SDS011;37033;49.994;21.992;2023-09-19T09:46:07;8.00;;;6.00;;
50709;SDS011;37033;49.994;21.992;2023-09-19T09:49:03;6.60;;;6.00;;
50709;SDS011;37033;49.994;21.992;2023-09-19T09:52:00;5.60;;;5.10;;
50709;SDS011;37033;49.994;21.992;2023-09-19T09:54:35;8.30;;;5.80;;
50709;SDS011;37033;49.994;21.992;2023-09-19T09:57:06;9.20;;;5.50;;
50709;SDS011;37033;49.994;21.992;2023-09-19T09:59:45;8.50;;;5.90;;
50709;SDS011;37033;49.994;21.992;2023-09-19T10:02:17;6.20;;;5.60;;
50709;SDS011;37033;49.994;21.992;2023-09-19T10:04:52;6.60;;;5.30;;
50709;SDS011;37033;49.994;21.992;2023-09-19T10:07:36;7.80;;;6.10;;
50709;SDS011;37033;49.994;21.992;2023-09-19T10:10:09;5.90;;;5.30;;
50709;SDS011;37033;49.994;21.992;2023-09-19T10:12:49;6.70;;;5.60;;
50709;SDS011;37033;49.994;21.992;2023-09-19T10:15:31;7.70;;;5.00;;
50709;SDS011;37033;49.994;21.992;2023-09-19T10:18:04;7.50;;;5.90;;
50709;SDS011;37033;49.994;21.992;2023-09-19T10:20:36;6.20;;;5.50;;
50709;SDS011;37033;49.994;21.992;2023-09-19T10:23:10;5.60;;;5.10;;
50709;SDS011;37033;49.994;21.992;2023-09-19T10:25:41;5.10;;;4.70;;
50709;SDS011;37033;49.994;21.992;2023-09-19T10:28:15;7.10;;;5.10;;
50709;SDS011;37033;49.994;21.992;2023-09-19T10:30:50;7.40;;;5.60;;
50709;SDS011;37033;49.994;21.992;2023-09-19T10:33:21;6.50;;;5.80;;
50709;SDS011;37033;49.994;21.992;2023-09-19T10:35:54;5.70;;;5.20;;
50709;SDS011;37033;49.994;21.992;2023-09-19T10:38:27;8.00;;;5.30;;
50709;SDS011;37033;49.994;21.992;2023-09-19T10:41:00;5.90;;;5.30;;
50709;SDS011;37033;49.994;21.992;2023-09-19T10:43:32;6.80;;;5.80;;
50709;SDS011;37033;49.994;21.992;2023-09-19T10:46:08;6.50;;;5.80;;
50709;SDS011;37033;49.994;21.992;2023-09-19T10:48:40;6.10;;;5.50;;
50709;SDS011;37033;49.994;21.992;2023-09-19T10:51:16;10.90;;;5.20;;
50709;SDS011;37033;49.994;21.992;2023-09-19T10:53:53;7.40;;;5.50;;
50709;SDS011;37033;49.994;21.992;2023-09-19T10:56:29;5.80;;;5.30;;
50709;SDS011;37033;49.994;21.992;2023-09-19T10:59:08;5.70;;;5.00;;
50709;SDS011;37033;49.994;21.992;2023-09-19T11:01:43;5.80;;;5.30;;
50709;SDS011;37033;49.994;21.992;2023-09-19T11:04:21;5.50;;;5.00;;
50709;SDS011;37033;49.994;21.992;2023-09-19T11:07:01;5.50;;;4.90;;
50709;SDS011;37033;49.994;21.992;2023-09-19T11:09:46;6.00;;;4.80;;
50709;SDS011;37033;49.994;21.992;2023-09-19T11:27:12;3.70;;;3.40;;
50709;SDS011;37033;49.994;21.992;2023-09-19T11:29:45;3.60;;;3.30;;
50709;SDS011;37033;49.994;21.992;2023-09-19T11:32:16;3.80;;;3.40;;
50709;SDS011;37033;49.994;21.992;2023-09-19T11:35:20;4.50;;;3.40;;
50709;SDS011;37033;49.994;21.992;2023-09-19T11:38:00;3.70;;;3.40;;
50709;SDS011;37033;49.994;21.992;2023-09-19T11:40:38;3.40;;;3.10;;
50709;SDS011;37033;49.994;21.992;2023-09-19T11:46:07;3.60;;;3.30;;
50709;SDS011;37033;49.994;21.992;2023-09-19T11:48:41;3.60;;;3.30;;
50709;SDS011;37033;49.994;21.992;2023-09-19T11:51:14;4.40;;;4.00;;
50709;SDS011;37033;49.994;21.992;2023-09-19T11:53:51;3.40;;;3.20;;
50709;SDS011;37033;49.994;21.992;2023-09-19T11:56:23;4.00;;;3.60;;
50709;SDS011;37033;49.994;21.992;2023-09-19T11:58:55;4.30;;;3.90;;
50709;SDS011;37033;49.994;21.992;2023-09-19T12:01:29;3.80;;;3.50;;
50709;SDS011;37033;49.994;21.992;2023-09-19T12:04:02;4.10;;;3.40;;
50709;SDS011;37033;49.994;21.992;2023-09-19T12:06:33;3.80;;;3.40;;
50709;SDS011;37033;49.994;21.992;2023-09-19T12:09:07;3.80;;;3.40;;
50709;SDS011;37033;49.994;21.992;2023-09-19T12:11:44;3.70;;;3.40;;
50709;SDS011;37033;49.994;21.992;2023-09-19T12:14:22;4.20;;;3.70;;
50709;SDS011;37033;49.994;21.992;2023-09-19T12:16:55;3.90;;;3.50;;
50709;SDS011;37033;49.994;21.992;2023-09-19T12:19:26;3.70;;;3.10;;
50709;SDS011;37033;49.994;21.992;2023-09-19T12:21:59;4.40;;;3.30;;
50709;SDS011;37033;49.994;21.992;2023-09-19T12:24:33;3.20;;;3.00;;
50709;SDS011;37033;49.994;21.992;2023-09-19T12:27:06;3.20;;;2.90;;
50709;SDS011;37033;49.994;21.992;2023-09-19T12:29:43;3.10;;;2.80;;
50709;SDS011;37033;49.994;21.992;2023-09-19T12:32:16;3.20;;;2.90;;
50709;SDS011;37033;49.994;21.992;2023-09-19T12:34:52;3.00;;;2.80;;
50709;SDS011;37033;49.994;21.992;2023-09-19T12:37:23;4.10;;;3.20;;
50709;SDS011;37033;49.994;21.992;2023-09-19T12:40:04;3.20;;;2.90;;
50709;SDS011;37033;49.994;21.992;2023-09-19T12:42:45;2.60;;;2.40;;
50709;SDS011;37033;49.994;21.992;2023-09-19T12:45:16;3.30;;;2.90;;
50709;SDS011;37033;49.994;21.992;2023-09-19T12:53:33;3.80;;;2.90;;
50709;SDS011;37033;49.994;21.992;2023-09-19T12:56:08;3.60;;;3.10;;
50709;SDS011;37033;49.994;21.992;2023-09-19T12:58:51;4.40;;;4.00;;
50709;SDS011;37033;49.994;21.992;2023-09-19T13:01:23;4.50;;;4.10;;
50709;SDS011;37033;49.994;21.992;2023-09-19T13:06:46;5.00;;;4.50;;
50709;SDS011;37033;49.994;21.992;2023-09-19T13:09:17;5.60;;;5.10;;
50709;SDS011;37033;49.994;21.992;2023-09-19T13:11:49;3.90;;;3.60;;
50709;SDS011;37033;49.994;21.992;2023-09-19T13:14:35;5.50;;;3.90;;
50709;SDS011;37033;49.994;21.992;2023-09-19T13:17:14;4.10;;;3.10;;
50709;SDS011;37033;49.994;21.992;2023-09-19T13:19:45;3.50;;;3.20;;
50709;SDS011;37033;49.994;21.992;2023-09-19T13:25:14;5.10;;;3.60;;
50709;SDS011;37033;49.994;21.992;2023-09-19T13:27:47;4.00;;;3.60;;
50709;SDS011;37033;49.994;21.992;2023-09-19T13:30:19;4.80;;;3.40;;
50709;SDS011;37033;49.994;21.992;2023-09-19T13:33:03;4.80;;;3.70;;
50709;SDS011;37033;49.994;21.992;2023-09-19T13:35:35;3.40;;;3.10;;
50709;SDS011;37033;49.994;21.992;2023-09-19T13:38:07;5.10;;;3.10;;
50709;SDS011;37033;49.994;21.992;2023-09-19T13:40:39;5.80;;;3.50;;
50709;SDS011;37033;49.994;21.992;2023-09-19T13:43:10;3.50;;;3.20;;
50709;SDS011;37033;49.994;21.992;2023-09-19T13:45:41;6.30;;;3.90;;
50709;SDS011;37033;49.994;21.992;2023-09-19T13:48:11;3.70;;;3.10;;
50709;SDS011;37033;49.994;21.992;2023-09-19T13:50:42;7.00;;;4.00;;
50709;SDS011;37033;49.994;21.992;2023-09-19T13:53:13;4.80;;;3.70;;
50709;SDS011;37033;49.994;21.992;2023-09-19T13:55:44;5.00;;;4.30;;
50709;SDS011;37033;49.994;21.992;2023-09-19T13:58:16;6.00;;;4.00;;
50709;SDS011;37033;49.994;21.992;2023-09-19T14:00:46;8.10;;;5.20;;
50709;SDS011;37033;49.994;21.992;2023-09-19T14:03:17;5.30;;;4.80;;
50709;SDS011;37033;49.994;21.992;2023-09-19T14:05:49;5.50;;;4.90;;
50709;SDS011;37033;49.994;21.992;2023-09-19T14:08:19;5.30;;;4.80;;
50709;SDS011;37033;49.994;21.992;2023-09-19T14:10:51;7.60;;;5.90;;
50709;SDS011;37033;49.994;21.992;2023-09-19T14:13:22;5.90;;;5.20;;
50709;SDS011;37033;49.994;21.992;2023-09-19T14:15:53;6.40;;;5.50;;
50709;SDS011;37033;49.994;21.992;2023-09-19T14:18:23;7.50;;;5.90;;
50709;SDS011;37033;49.994;21.992;2023-09-19T14:20:54;8.00;;;6.20;;
50709;SDS011;37033;49.994;21.992;2023-09-19T14:23:25;6.50;;;5.80;;
50709;SDS011;37033;49.994;21.992;2023-09-19T14:25:55;6.30;;;5.60;;
50709;SDS011;37033;49.994;21.992;2023-09-19T14:28:29;11.20;;;7.40;;
50709;SDS011;37033;49.994;21.992;2023-09-19T14:31:05;7.40;;;5.70;;
50709;SDS011;37033;49.994;21.992;2023-09-19T14:33:36;9.70;;;7.20;;
50709;SDS011;37033;49.994;21.992;2023-09-19T14:36:08;6.90;;;6.30;;
50709;SDS011;37033;49.994;21.992;2023-09-19T14:38:39;10.70;;;6.40;;
50709;SDS011;37033;49.994;21.992;2023-09-19T14:41:09;8.00;;;6.90;;
50709;SDS011;37033;49.994;21.992;2023-09-19T14:43:40;8.20;;;6.50;;
50709;SDS011;37033;49.994;21.992;2023-09-19T14:46:11;9.70;;;6.50;;
50709;SDS011;37033;49.994;21.992;2023-09-19T14:48:42;7.60;;;6.40;;
50709;SDS011;37033;49.994;21.992;2023-09-19T14:51:14;10.10;;;6.60;;
50709;SDS011;37033;49.994;21.992;2023-09-19T14:53:46;7.40;;;6.00;;
50709;SDS011;37033;49.994;21.992;2023-09-19T14:56:17;6.70;;;6.10;;
50709;SDS011;37033;49.994;21.992;2023-09-19T14:58:48;7.10;;;5.80;;
50709;SDS011;37033;49.994;21.992;2023-09-19T15:01:18;7.20;;;6.50;;
50709;SDS011;37033;49.994;21.992;2023-09-19T15:03:50;10.50;;;6.60;;
50709;SDS011;37033;49.994;21.992;2023-09-19T15:06:22;9.30;;;6.70;;
50709;SDS011;37033;49.994;21.992;2023-09-19T15:08:54;10.10;;;7.20;;
50709;SDS011;37033;49.994;21.992;2023-09-19T15:11:25;10.00;;;8.10;;
50709;SDS011;37033;49.994;21.992;2023-09-19T15:13:56;9.00;;;8.10;;
50709;SDS011;37033;49.994;21.992;2023-09-19T15:16:27;10.30;;;8.30;;
50709;SDS011;37033;49.994;21.992;2023-09-19T15:18:57;11.10;;;8.90;;
50709;SDS011;37033;49.994;21.992;2023-09-19T15:21:28;7.70;;;6.20;;
50709;SDS011;37033;49.994;21.992;2023-09-19T15:23:59;10.20;;;6.10;;
50709;SDS011;37033;49.994;21.992;2023-09-19T15:26:30;6.50;;;5.70;;
50709;SDS011;37033;49.994;21.992;2023-09-19T15:29:01;7.80;;;6.00;;
50709;SDS011;37033;49.994;21.992;2023-09-19T15:31:32;7.10;;;6.40;;
50709;SDS011;37033;49.994;21.992;2023-09-19T15:34:04;9.50;;;6.20;;
50709;SDS011;37033;49.994;21.992;2023-09-19T15:36:36;6.90;;;6.00;;
50709;SDS011;37033;49.994;21.992;2023-09-19T15:39:07;7.30;;;6.60;;
50709;SDS011;37033;49.994;21.992;2023-09-19T15:41:39;7.70;;;5.90;;